KBHM/BHM METAR and TAF weather

Enter ICAO airport designator
Station Type Date Time Source
KBHM METAR 2021/10/22 19:53 UTC NOAA

KBHM 221953Z 26007KT 10SM BKN250 23/12 A3004 RMK AO2 SLP156 T02280117 $


Station Type Date Time Source
KBHM Decoded METAR 2021/10/22 19:53 UTC NOAA

BIRMINGHAM INT'L AIRPORT, AL, United States (KBHM) 33-34N 086-45W 197M
Oct 22, 2021 - 03:53 PM EDT / 2021.10.22 1953 UTC
Wind: from the W (260 degrees) at 8 MPH (7 KT):0
Visibility: 10 mile(s):0
Sky conditions: mostly cloudy
Temperature: 73.0 F (22.8 C)
Dew Point: 53.1 F (11.7 C)
Relative Humidity: 49%
Pressure (altimeter): 30.04 in. Hg (1017 hPa)
ob: KBHM 221953Z 26007KT 10SM BKN250 23/12 A3004 RMK AO2 SLP156 T02280117
cycle: 20

Station Type Date Time Source
KBHM TAF 2021/10/22 18:22 UTC NOAA

TAF KBHM 221720Z 2218/2318 32007KT P6SM FEW250
FM230200 13002KT P6SM FEW250
FM231600 16007KT P6SM FEW250
AMD NOT SKED

Example: see airport list